Time;durP1;ratioP1;P1;durP2;ratioP2;P2;SDS_P1;SDS_P2;PMS_P1;PMS_P2;Temp;Humidity;BMP_temperature;BMP_pressure;BME280_temperature;BME280_humidity;BME280_pressure;Samples;Min_cycle;Max_cycle;Signal;HPM_P1;HPM_P2
2022/10/24 00:01:20;;;;;;;22.85;12.55;;;;;;;13.49;100.00;99021.94;4501823;31;20145;-68
2022/10/24 00:03:48;;;;;;;31.08;13.80;;;;;;;13.57;100.00;99026.44;4493976;31;20108;-69
2022/10/24 00:06:17;;;;;;;26.12;13.98;;;;;;;13.54;100.00;99024.09;4485935;31;20084;-68
2022/10/24 00:08:44;;;;;;;25.75;14.10;;;;;;;13.51;100.00;99016.50;4498745;31;20096;-69
2022/10/24 00:11:14;;;;;;;30.23;13.45;;;;;;;13.52;100.00;99020.81;4501744;31;20124;-69
2022/10/24 00:13:42;;;;;;;27.27;13.68;;;;;;;13.43;100.00;99013.78;4501955;31;20084;-69
2022/10/24 00:16:10;;;;;;;29.48;13.95;;;;;;;13.52;100.00;99020.81;4501758;31;20117;-69
2022/10/24 00:18:37;;;;;;;30.88;13.80;;;;;;;13.49;100.00;99015.84;4501444;31;20092;-69
2022/10/24 00:21:05;;;;;;;26.20;13.88;;;;;;;13.48;100.00;99022.06;4501379;31;20138;-69
2022/10/24 00:23:32;;;;;;;27.27;14.25;;;;;;;13.47;100.00;99020.41;4501478;31;20171;-69
2022/10/24 00:26:00;;;;;;;25.48;15.35;;;;;;;13.32;100.00;99023.53;4501720;31;20159;-68
2022/10/24 00:28:28;;;;;;;25.50;13.40;;;;;;;13.22;100.00;99022.75;4501483;31;20495;-68
2022/10/24 00:30:55;;;;;;;27.73;14.45;;;;;;;13.22;100.00;99009.63;4501412;31;20100;-69
2022/10/24 00:33:23;;;;;;;33.42;16.15;;;;;;;13.22;100.00;99012.25;4501374;31;20099;-68
2022/10/24 00:35:50;;;;;;;32.17;15.57;;;;;;;13.18;100.00;99002.97;4501703;31;20435;-69
2022/10/24 00:38:17;;;;;;;38.00;15.80;;;;;;;13.17;100.00;99009.25;4501507;31;20121;-69
2022/10/24 00:40:45;;;;;;;29.10;15.60;;;;;;;13.15;100.00;99003.28;4501595;31;20088;-69
2022/10/24 00:43:17;;;;;;;31.58;17.05;;;;;;;13.14;100.00;98999.84;4501634;31;20129;-69
2022/10/24 00:45:49;;;;;;;35.47;14.87;;;;;;;13.10;100.00;98992.38;4501626;31;20482;-69
2022/10/24 00:48:22;;;;;;;35.35;16.70;;;;;;;13.15;100.00;99003.28;4501366;31;20113;-69
2022/10/24 00:50:53;;;;;;;29.70;15.35;;;;;;;13.17;100.00;98997.88;4500406;31;20088;-69
2022/10/24 00:53:21;;;;;;;29.83;14.82;;;;;;;13.16;100.00;98994.41;4500052;31;20118;-69
2022/10/24 00:55:51;;;;;;;28.58;14.95;;;;;;;13.11;100.00;99001.91;4501433;31;20088;-69
2022/10/24 00:58:21;;;;;;;32.53;15.40;;;;;;;13.10;100.00;98987.13;4500054;31;20097;-68
2022/10/24 01:00:48;;;;;;;32.25;15.25;;;;;;;13.13;100.00;98986.81;4500077;31;20126;-69
2022/10/24 01:03:15;;;;;;;30.92;16.33;;;;;;;13.07;100.00;98992.69;4496731;31;20161;-69
2022/10/24 01:06:09;;;;;;;34.10;15.77;;;;;;;13.04;100.00;98995.59;4485506;31;20458;-68
2022/10/24 01:08:36;;;;;;;30.60;14.57;;;;;;;13.06;100.00;98991.03;4447670;32;20616;-68
2022/10/24 01:11:21;;;;;;;34.05;16.35;;;;;;;13.02;100.00;98987.87;4451853;32;20153;-69
2022/10/24 01:13:57;;;;;;;31.90;16.62;;;;;;;13.02;100.00;98981.75;4451751;32;20112;-69
2022/10/24 01:16:31;;;;;;;35.97;16.50;;;;;;;12.99;100.00;98984.69;4451930;32;20206;-69
2022/10/24 01:19:10;;;;;;;;;;;;;;;12.93;100.00;98981.69;4451880;32;20109;-69
2022/10/24 01:21:58;;;;;;;29.52;16.25;;;;;;;12.91;100.00;98980.16;4452038;32;20464;-69
2022/10/24 01:24:54;;;;;;;33.33;15.65;;;;;;;12.88;100.00;98989.16;4451746;32;20248;-69
2022/10/24 01:27:40;;;;;;;36.42;16.50;;;;;;;12.93;100.00;99000.09;4451552;32;20160;-69
2022/10/24 01:30:10;;;;;;;38.95;15.98;;;;;;;12.93;100.00;99009.78;4451993;32;20097;-69
2022/10/24 01:32:59;;;;;;;38.75;16.27;;;;;;;13.00;100.00;99002.13;4437655;32;20613;-69
2022/10/24 01:35:45;;;;;;;32.05;16.10;;;;;;;12.97;100.00;98995.34;4438932;32;20472;-69
2022/10/24 01:38:15;;;;;;;32.65;15.30;;;;;;;12.95;100.00;98995.50;4451663;32;20155;-69
2022/10/24 01:40:45;;;;;;;33.25;15.25;;;;;;;12.85;100.00;98992.09;4451725;32;20144;-69
2022/10/24 01:43:14;;;;;;;40.05;17.00;;;;;;;12.79;100.00;98995.31;4451613;32;20143;-69
2022/10/24 01:45:45;;;;;;;34.95;16.45;;;;;;;12.73;100.00;98990.62;4468355;31;20104;-69
2022/10/24 01:48:16;;;;;;;34.13;15.70;;;;;;;12.73;100.00;98988.84;4499880;31;20398;-69
2022/10/24 01:50:45;;;;;;;29.20;15.02;;;;;;;12.69;100.00;98982.22;4499987;31;20147;-69
2022/10/24 01:53:12;;;;;;;35.13;16.35;;;;;;;12.75;100.00;98983.44;4499715;31;20126;-69
2022/10/24 01:55:40;;;;;;;39.53;17.58;;;;;;;12.71;100.00;98985.50;4499668;31;20585;-69
2022/10/24 01:58:07;;;;;;;37.78;17.55;;;;;;;12.76;100.00;98977.19;4500949;31;20091;-69
2022/10/24 02:00:34;;;;;;;39.17;17.58;;;;;;;12.66;100.00;98972.00;4501136;31;20080;-69
2022/10/24 02:03:16;;;;;;;39.60;17.90;;;;;;;12.60;100.00;98968.12;4497916;31;20201;-69
2022/10/24 02:05:48;;;;;;;35.33;16.87;;;;;;;12.69;100.00;98965.63;4485512;31;20231;-69
2022/10/24 02:08:20;;;;;;;28.15;15.50;;;;;;;12.66;100.00;98953.59;4483923;32;20655;-69
2022/10/24 02:10:52;;;;;;;32.50;14.45;;;;;;;12.67;100.00;98951.78;4484070;32;20147;-69
2022/10/24 02:13:31;;;;;;;29.50;15.20;;;;;;;12.65;100.00;98948.47;4483696;32;20110;-69
2022/10/24 02:15:59;;;;;;;37.42;16.08;;;;;;;12.64;100.00;98952.06;4485021;31;20213;-69
2022/10/24 02:18:27;;;;;;;30.62;14.30;;;;;;;12.65;100.00;98937.97;4483898;32;20096;-69
2022/10/24 02:21:07;;;;;;;29.23;15.10;;;;;;;12.67;100.00;98942.13;4483719;32;20134;-69
2022/10/24 02:23:42;;;;;;;29.60;14.63;;;;;;;12.56;100.00;98944.91;4485403;31;20100;-69
2022/10/24 02:26:19;;;;;;;28.67;15.23;;;;;;;12.51;100.00;98942.72;4483474;32;20388;-69
2022/10/24 02:28:48;;;;;;;33.35;16.60;;;;;;;12.55;100.00;98949.34;4483568;32;20503;-69
2022/10/24 02:31:20;;;;;;;30.52;15.20;;;;;;;12.54;100.00;98955.56;4484828;31;20167;-68
2022/10/24 02:33:49;;;;;;;32.72;15.75;;;;;;;12.54;100.00;98941.63;4483628;32;20159;-69
2022/10/24 02:36:18;;;;;;;33.58;15.65;;;;;;;12.59;100.00;98942.81;4483502;32;20116;-69
2022/10/24 02:38:47;;;;;;;32.00;15.88;;;;;;;12.62;100.00;98944.34;4483809;32;20186;-69
2022/10/24 02:41:20;;;;;;;31.08;15.15;;;;;;;12.49;100.00;98944.69;4483688;32;20080;-69
2022/10/24 02:43:49;;;;;;;30.17;14.70;;;;;;;12.53;100.00;98946.03;4484707;31;20093;-69
2022/10/24 02:46:17;;;;;;;28.87;15.32;;;;;;;12.53;100.00;98947.84;4483569;32;20123;-69
2022/10/24 02:48:49;;;;;;;32.88;16.02;;;;;;;12.48;100.00;98948.28;4483616;32;20164;-69
2022/10/24 02:51:19;;;;;;;40.38;15.90;;;;;;;12.52;100.00;98959.31;4483524;32;20157;-69
2022/10/24 02:53:47;;;;;;;32.53;15.73;;;;;;;12.48;100.00;98966.66;4483391;32;20131;-69
2022/10/24 02:56:14;;;;;;;35.88;16.60;;;;;;;12.45;100.00;98968.78;4484586;31;20577;-69
2022/10/24 02:58:41;;;;;;;32.17;14.75;;;;;;;12.48;100.00;98956.16;4484966;31;20471;-69
2022/10/24 03:01:08;;;;;;;32.80;15.52;;;;;;;12.57;100.00;98942.16;4484380;31;20113;-69
2022/10/24 03:03:35;;;;;;;36.58;15.98;;;;;;;12.56;100.00;98943.09;4484241;31;20100;-69
2022/10/24 03:06:03;;;;;;;28.73;15.20;;;;;;;12.53;100.00;98932.06;4484411;31;20152;-69
2022/10/24 03:08:30;;;;;;;28.42;15.40;;;;;;;12.49;100.00;98921.03;4495719;31;20593;-69
2022/10/24 03:10:57;;;;;;;31.12;15.07;;;;;;;12.44;100.00;98910.13;4500090;31;20147;-69
2022/10/24 03:13:24;;;;;;;34.38;16.37;;;;;;;12.41;100.00;98903.37;4500120;31;20143;-69
2022/10/24 03:15:51;;;;;;;32.70;17.10;;;;;;;12.41;100.00;98905.16;4500024;31;20125;-69
2022/10/24 03:18:18;;;;;;;34.55;16.02;;;;;;;12.32;100.00;98911.28;4500085;31;20103;-68
2022/10/24 03:20:45;;;;;;;38.92;16.33;;;;;;;12.36;100.00;98923.97;4499887;31;20558;-69
2022/10/24 03:23:13;;;;;;;38.63;17.02;;;;;;;12.35;100.00;98926.75;4500154;31;20118;-69
2022/10/24 03:25:40;;;;;;;35.42;15.50;;;;;;;12.40;100.00;98925.34;4499671;31;20164;-69
2022/10/24 03:28:07;;;;;;;32.80;16.27;;;;;;;12.45;100.00;98919.66;4499888;31;20589;-69
2022/10/24 03:30:34;;;;;;;36.08;16.42;;;;;;;12.45;100.00;98918.84;4499659;31;20469;-69
2022/10/24 03:33:01;;;;;;;34.20;16.25;;;;;;;12.41;100.00;98931.44;4499680;31;20088;-69
2022/10/24 03:35:28;;;;;;;34.45;15.65;;;;;;;12.43;100.00;98924.25;4499759;31;20123;-69
2022/10/24 03:37:56;;;;;;;41.35;17.73;;;;;;;12.45;100.00;98922.28;4499837;31;20135;-69
2022/10/24 03:40:23;;;;;;;38.55;15.77;;;;;;;12.45;100.00;98932.81;4499626;31;20134;-68
2022/10/24 03:42:51;;;;;;;40.05;17.23;;;;;;;12.43;100.00;98922.44;4499749;31;20494;-69
2022/10/24 03:45:18;;;;;;;32.65;14.38;;;;;;;12.42;100.00;98919.97;4499542;31;20100;-69
2022/10/24 03:47:45;;;;;;;31.98;16.10;;;;;;;12.37;100.00;98928.28;4499749;31;20155;-69
2022/10/24 03:50:12;;;;;;;29.75;15.55;;;;;;;12.37;100.00;98925.66;4499527;31;20159;-69
2022/10/24 03:52:39;;;;;;;37.13;16.25;;;;;;;12.43;100.00;98940.00;4499716;31;20476;-69
2022/10/24 03:55:06;;;;;;;36.78;17.00;;;;;;;12.35;100.00;98939.88;4499906;31;20148;-69
2022/10/24 03:57:34;;;;;;;36.22;15.18;;;;;;;12.35;100.00;98939.88;4501826;31;20108;-69
2022/10/24 04:00:01;;;;;;;34.00;16.08;;;;;;;12.27;100.00;98931.91;4501769;31;20095;-69
2022/10/24 04:02:32;;;;;;;34.28;17.25;;;;;;;12.24;100.00;98946.97;4500219;31;20172;-69
2022/10/24 04:05:00;;;;;;;34.95;16.92;;;;;;;12.25;100.00;98947.81;4494069;31;20104;-69
2022/10/24 04:07:27;;;;;;;34.30;16.52;;;;;;;12.30;100.00;98944.75;4497476;31;20218;-69
2022/10/24 04:09:57;;;;;;;38.08;17.10;;;;;;;12.44;100.00;98946.91;4498987;31;20167;-69
2022/10/24 04:12:24;;;;;;;41.17;16.95;;;;;;;12.35;100.00;98939.88;4477129;32;20202;-69
2022/10/24 04:14:51;;;;;;;31.85;15.85;;;;;;;12.33;100.00;98934.78;4492059;31;20122;-69
2022/10/24 04:17:18;;;;;;;39.00;17.02;;;;;;;12.22;100.00;98935.78;4497289;31;20100;-69
2022/10/24 04:19:46;;;;;;;38.72;16.52;;;;;;;12.23;100.00;98931.34;4494432;31;20514;-69
2022/10/24 04:22:13;;;;;;;33.92;16.55;;;;;;;12.15;100.00;98921.56;4494866;31;20498;-69
2022/10/24 04:24:40;;;;;;;38.92;16.45;;;;;;;12.14;100.00;98924.34;4494610;31;20104;-69
2022/10/24 04:27:07;;;;;;;36.63;16.48;;;;;;;12.02;100.00;98927.16;4499449;31;20099;-69
2022/10/24 04:29:35;;;;;;;38.72;16.92;;;;;;;12.07;100.00;98934.59;4490218;31;20108;-69
2022/10/24 04:32:03;;;;;;;38.20;16.55;;;;;;;12.06;100.00;98933.75;4494563;31;20112;-69
2022/10/24 04:34:34;;;;;;;40.22;16.77;;;;;;;12.12;100.00;98927.09;4491070;31;20123;-68
2022/10/24 04:37:02;;;;;;;43.87;16.90;;;;;;;12.16;100.00;98925.84;4500888;31;20170;-69
2022/10/24 04:39:29;;;;;;;45.12;16.85;;;;;;;12.07;100.00;98922.28;4494391;31;20134;-69
2022/10/24 04:41:56;;;;;;;45.83;16.73;;;;;;;12.02;100.00;98916.66;4496895;31;20627;-69
2022/10/24 04:44:23;;;;;;;45.05;18.52;;;;;;;12.03;100.00;98926.16;4493669;31;20104;-69
2022/10/24 04:46:50;;;;;;;47.03;19.27;;;;;;;12.02;100.00;98913.19;4491905;31;20468;-69
2022/10/24 04:49:18;;;;;;;63.42;20.35;;;;;;;12.00;100.00;98899.38;4494882;31;20107;-69
2022/10/24 04:51:45;;;;;;;48.30;18.65;;;;;;;11.93;100.00;98901.75;4489620;31;20092;-69
2022/10/24 04:54:12;;;;;;;64.12;19.23;;;;;;;11.88;100.00;98899.53;4486019;31;20442;-69
2022/10/24 04:56:40;;;;;;;52.10;19.92;;;;;;;11.92;100.00;98896.63;4487871;31;20155;-69
2022/10/24 04:59:07;;;;;;;66.43;21.00;;;;;;;11.90;100.00;98900.19;4487434;31;20100;-69
2022/10/24 05:01:34;;;;;;;55.28;20.45;;;;;;;11.83;100.00;98909.59;4494082;31;20122;-68
2022/10/24 05:04:01;;;;;;;59.70;20.80;;;;;;;11.95;100.00;98917.38;4490175;31;20119;-69
2022/10/24 05:06:29;;;;;;;60.92;21.05;;;;;;;11.90;100.00;98920.38;4491315;31;20095;-69
2022/10/24 05:08:56;;;;;;;93.68;21.20;;;;;;;11.90;100.00;98923.81;4489708;31;20472;-69
2022/10/24 05:11:23;;;;;;;73.10;21.75;;;;;;;11.84;100.00;98921.78;4483514;31;20124;-69
2022/10/24 05:13:50;;;;;;;71.05;19.12;;;;;;;11.97;100.00;98939.03;4487298;31;20754;-69
2022/10/24 05:16:17;;;;;;;82.75;21.60;;;;;;;11.95;100.00;98941.00;4490509;31;20117;-69
2022/10/24 05:18:44;;;;;;;66.45;21.67;;;;;;;11.89;100.00;98943.16;4489804;31;20216;-69
2022/10/24 05:21:11;;;;;;;65.43;22.27;;;;;;;11.92;100.00;98943.88;4493676;31;20140;-69
2022/10/24 05:23:38;;;;;;;65.25;21.25;;;;;;;11.99;100.00;98958.94;4494449;31;20100;-69
2022/10/24 05:26:06;;;;;;;79.40;23.38;;;;;;;12.10;100.00;98968.44;4490010;31;20092;-69
2022/10/24 05:28:34;;;;;;;86.82;22.13;;;;;;;12.06;100.00;98959.19;4495839;31;20167;-69
2022/10/24 05:31:01;;;;;;;70.80;21.92;;;;;;;12.07;100.00;98960.84;4494586;31;20092;-69
2022/10/24 05:33:29;;;;;;;65.35;21.00;;;;;;;12.05;100.00;98963.63;4492740;31;20153;-70
2022/10/24 05:35:56;;;;;;;67.50;19.50;;;;;;;12.03;100.00;98955.03;4494017;31;20158;-69
2022/10/24 05:38:23;;;;;;;83.25;21.77;;;;;;;12.07;100.00;98956.41;4491181;31;20088;-69
2022/10/24 05:40:51;;;;;;;76.10;21.02;;;;;;;12.03;100.00;98965.53;4492572;31;20136;-69
2022/10/24 05:43:18;;;;;;;66.07;22.20;;;;;;;12.01;100.00;98972.75;4492457;31;20157;-69
2022/10/24 05:45:47;;;;;;;60.30;20.77;;;;;;;12.01;100.00;98985.06;4495597;31;20473;-69
2022/10/24 05:48:20;;;;;;;62.55;19.85;;;;;;;12.05;100.00;98983.78;4491646;31;20601;-69
2022/10/24 05:50:47;;;;;;;88.10;20.88;;;;;;;12.04;100.00;98979.53;4493234;31;20187;-69
2022/10/24 05:53:14;;;;;;;70.78;20.70;;;;;;;12.05;100.00;98983.78;4494027;31;20116;-69
2022/10/24 05:55:41;;;;;;;84.25;21.87;;;;;;;12.13;100.00;98991.00;4492678;31;20099;-70
2022/10/24 05:58:08;;;;;;;72.28;21.60;;;;;;;12.01;100.00;98999.00;4484873;31;157382;-70
2022/10/24 06:00:35;;;;;;;71.18;19.80;;;;;;;12.00;100.00;98991.28;4490752;31;20381;-70
2022/10/24 06:03:03;;;;;;;63.72;21.27;;;;;;;12.07;100.00;98997.63;4493077;31;20143;-70
2022/10/24 06:05:30;;;;;;;75.87;21.67;;;;;;;12.04;100.00;98985.59;4489156;31;20099;-69
2022/10/24 06:07:58;;;;;;;75.35;21.50;;;;;;;12.12;100.00;98984.88;4489609;31;20099;-70
2022/10/24 06:10:25;;;;;;;78.78;21.87;;;;;;;12.07;100.00;98980.06;4490099;31;20080;-69
2022/10/24 06:12:52;;;;;;;71.60;22.98;;;;;;;12.00;100.00;98975.50;4494392;31;20118;-69
2022/10/24 06:15:19;;;;;;;79.80;22.75;;;;;;;12.10;100.00;98978.09;4494523;31;20096;-68
2022/10/24 06:17:47;;;;;;;81.57;24.42;;;;;;;12.09;100.00;98974.66;4486306;31;20126;-69
2022/10/24 06:20:14;;;;;;;97.35;25.08;;;;;;;12.01;100.00;98961.44;4489384;31;20159;-69
2022/10/24 06:22:43;;;;;;;69.62;22.08;;;;;;;12.02;100.00;98955.19;4491093;31;20122;-69
2022/10/24 06:25:12;;;;;;;75.47;22.33;;;;;;;12.09;100.00;98956.28;4489319;31;20174;-68
2022/10/24 06:27:40;;;;;;;71.50;24.33;;;;;;;11.97;100.00;98946.91;4491307;31;20104;-69
2022/10/24 06:30:09;;;;;;;71.50;23.70;;;;;;;12.07;100.00;98942.47;4489679;31;20096;-69
2022/10/24 06:32:37;;;;;;;70.43;23.12;;;;;;;11.99;100.00;98940.56;4489497;31;20212;-69
2022/10/24 06:35:12;;;;;;;75.33;23.20;;;;;;;12.05;100.00;98947.88;4488938;31;20099;-70
2022/10/24 06:37:39;;;;;;;74.93;24.10;;;;;;;12.04;100.00;98955.88;4489420;31;20088;-70
2022/10/24 06:40:12;;;;;;;64.10;23.87;;;;;;;12.07;100.00;98961.69;4488873;31;20222;-70
2022/10/24 06:42:40;;;;;;;65.10;24.85;;;;;;;12.06;100.00;98960.00;4491286;31;20125;-70
2022/10/24 06:45:08;;;;;;;73.00;23.27;;;;;;;12.05;100.00;98947.03;4491212;31;20088;-69
2022/10/24 06:47:35;;;;;;;71.95;25.40;;;;;;;12.22;100.00;98959.44;4489977;31;20160;-69
2022/10/24 06:50:03;;;;;;;73.50;23.02;;;;;;;12.09;100.00;98961.53;4491983;31;20576;-71
2022/10/24 06:52:30;;;;;;;57.58;21.62;;;;;;;12.12;100.00;98963.87;4489013;31;20212;-70
2022/10/24 06:54:57;;;;;;;64.12;24.80;;;;;;;12.23;100.00;98971.59;4487294;31;20087;-71
2022/10/24 06:57:24;;;;;;;75.00;22.70;;;;;;;12.32;100.00;98969.06;4490869;31;20533;-70
2022/10/24 06:59:52;;;;;;;57.70;21.67;;;;;;;12.28;100.00;98962.44;4495108;31;20107;-69
2022/10/24 07:02:20;;;;;;;57.40;22.92;;;;;;;12.30;100.00;98965.78;4491142;31;20171;-68
2022/10/24 07:04:47;;;;;;;59.63;23.70;;;;;;;12.17;100.00;98981.84;4490803;31;20087;-69
2022/10/24 07:07:16;;;;;;;62.00;23.95;;;;;;;12.19;100.00;98991.25;4489660;31;20100;-71
2022/10/24 07:09:51;;;;;;;57.78;22.98;;;;;;;12.22;100.00;98995.37;4485040;31;20107;-70
2022/10/24 07:12:18;;;;;;;65.23;23.80;;;;;;;12.44;100.00;99004.72;4495084;31;20103;-70
2022/10/24 07:14:51;;;;;;;64.12;22.17;;;;;;;12.45;100.00;99006.38;4492119;31;20079;-70
2022/10/24 07:17:18;;;;;;;57.58;22.55;;;;;;;12.57;100.00;99009.66;4486472;31;20238;-70
2022/10/24 07:19:51;;;;;;;63.15;23.60;;;;;;;12.58;100.00;99008.66;4486760;31;20097;-71
2022/10/24 07:22:18;;;;;;;63.38;22.85;;;;;;;12.23;100.00;98997.03;4486716;31;20199;-71
2022/10/24 07:24:51;;;;;;;70.57;23.30;;;;;;;12.33;100.00;99010.16;4490517;31;20096;-72
2022/10/24 07:27:19;;;;;;;71.33;22.10;;;;;;;12.37;100.00;99008.88;4492441;31;20091;-71
2022/10/24 07:29:46;;;;;;;67.62;24.17;;;;;;;12.54;100.00;98995.00;4488812;31;20183;-70
2022/10/24 07:32:14;;;;;;;69.62;23.08;;;;;;;12.53;100.00;98987.25;4495219;31;20111;-70
2022/10/24 07:34:41;;;;;;;84.07;24.40;;;;;;;12.57;100.00;98999.97;4488050;31;20115;-69
2022/10/24 07:37:08;;;;;;;63.50;23.15;;;;;;;12.64;100.00;98999.38;4495316;31;20178;-70
2022/10/24 07:39:36;;;;;;;68.85;22.23;;;;;;;12.56;100.00;99013.25;4496418;31;20119;-70
2022/10/24 07:42:03;;;;;;;66.80;23.45;;;;;;;12.58;100.00;99004.25;4496484;31;20521;-68
2022/10/24 07:44:30;;;;;;;65.32;21.33;;;;;;;12.46;100.00;99008.03;4494608;31;20084;-70
2022/10/24 07:46:57;;;;;;;68.87;22.67;;;;;;;12.53;100.00;99019.59;4497335;31;20100;-72
2022/10/24 07:49:25;;;;;;;65.22;22.10;;;;;;;12.44;100.00;99020.47;4498723;31;20107;-71
2022/10/24 07:51:57;;;;;;;68.05;22.90;;;;;;;12.59;100.00;99023.47;4489361;31;20437;-71
2022/10/24 07:54:25;;;;;;;63.70;23.45;;;;;;;12.43;100.00;99029.34;4494892;31;20088;-70
2022/10/24 07:56:53;;;;;;;76.53;24.25;;;;;;;12.43;100.00;99018.84;4490441;31;20193;-71
2022/10/24 07:59:20;;;;;;;68.25;23.48;;;;;;;12.34;100.00;99024.91;4492747;31;20995;-70
2022/10/24 08:02:10;;;;;;;70.10;23.70;;;;;;;12.49;100.00;99034.03;4491482;31;20134;-70
2022/10/24 08:04:37;;;;;;;87.12;25.65;;;;;;;12.53;100.00;99030.12;4494000;31;20112;-70
2022/10/24 08:07:11;;;;;;;72.10;24.52;;;;;;;12.40;100.00;99034.88;4494294;31;20117;-69
2022/10/24 08:09:41;;;;;;;69.65;25.17;;;;;;;12.34;100.00;99033.66;4494148;31;20087;-69
2022/10/24 08:12:08;;;;;;;82.40;23.42;;;;;;;12.16;100.00;99030.09;4487899;31;20840;-69
2022/10/24 08:14:37;;;;;;;74.85;24.75;;;;;;;12.40;100.00;99014.69;4489588;31;20084;-70
2022/10/24 08:17:04;;;;;;;76.43;23.23;;;;;;;12.42;100.00;99009.28;4490262;31;20236;-69
2022/10/24 08:19:32;;;;;;;69.60;23.58;;;;;;;12.52;100.00;99007.47;4485830;31;20107;-69
2022/10/24 08:21:59;;;;;;;90.87;23.87;;;;;;;12.64;100.00;99007.28;4498527;31;20124;-70
2022/10/24 08:24:27;;;;;;;65.28;22.95;;;;;;;12.59;100.00;99008.53;4494142;31;20096;-69
2022/10/24 08:26:57;;;;;;;78.78;25.10;;;;;;;12.64;100.00;98997.56;4489550;31;20099;-67
2022/10/24 08:29:24;;;;;;;71.18;23.23;;;;;;;12.67;100.00;98993.84;4488299;31;20159;-67
2022/10/24 08:31:53;;;;;;;81.00;25.70;;;;;;;12.89;100.00;99005.78;4488073;31;20134;-68
2022/10/24 08:34:21;;;;;;;79.87;23.40;;;;;;;12.75;100.00;98992.16;4488369;31;20493;-68
2022/10/24 08:36:48;;;;;;;87.00;23.60;;;;;;;12.65;100.00;98988.72;4486086;31;20163;-70
2022/10/24 08:39:16;;;;;;;75.30;25.45;;;;;;;12.82;100.00;98986.31;4497154;31;20083;-70
2022/10/24 08:42:11;;;;;;;75.75;22.90;;;;;;;12.92;100.00;98994.97;4497180;31;20151;-70
2022/10/24 08:44:40;;;;;;;80.38;24.23;;;;;;;12.76;100.00;98987.69;4490531;31;20123;-71
2022/10/24 08:47:08;;;;;;;83.62;23.60;;;;;;;12.71;100.00;98984.69;4493014;31;20096;-67
2022/10/24 08:49:56;;;;;;;72.97;23.27;;;;;;;12.91;100.00;98990.69;4484880;31;20152;-68
2022/10/24 08:52:30;;;;;;;74.05;24.27;;;;;;;12.89;100.00;98990.00;4493377;31;20123;-68
2022/10/24 08:54:59;;;;;;;74.47;23.48;;;;;;;12.86;100.00;98988.50;4483245;31;20122;-72
2022/10/24 08:57:33;;;;;;;73.35;22.90;;;;;;;12.72;100.00;98981.91;4492161;31;20101;-70
2022/10/24 09:00:17;;;;;;;79.35;22.33;;;;;;;12.84;100.00;98985.19;4497222;31;20482;-72
2022/10/24 09:02:49;;;;;;;75.80;21.52;;;;;;;12.68;100.00;98982.34;4486824;31;20104;-72
2022/10/24 09:05:25;;;;;;;67.87;23.17;;;;;;;12.98;100.00;98980.41;4487643;31;20487;-69
2022/10/24 09:08:02;;;;;;;71.15;23.77;;;;;;;13.01;100.00;98980.13;4488375;31;20108;-68
2022/10/24 09:10:43;;;;;;;70.22;22.27;;;;;;;13.26;100.00;98984.66;4489076;31;20100;-69
2022/10/24 09:13:13;;;;;;;67.35;23.27;;;;;;;13.26;100.00;98981.19;4494709;31;20096;-67
2022/10/24 09:15:42;;;;;;;67.70;22.90;;;;;;;13.48;100.00;98977.34;4488836;31;20484;-68
2022/10/24 09:18:33;;;;;;;64.47;22.00;;;;;;;13.56;100.00;98993.19;4496989;31;20156;-68
2022/10/24 09:21:01;;;;;;;61.30;22.85;;;;;;;13.54;100.00;98987.25;4489559;31;20443;-68
2022/10/24 09:23:33;;;;;;;63.13;22.65;;;;;;;13.57;100.00;98979.06;4489289;31;20172;-67
2022/10/24 09:26:02;;;;;;;55.72;22.00;;;;;;;13.60;100.00;98989.28;4485098;31;20112;-67
2022/10/24 09:28:30;;;;;;;52.25;20.33;;;;;;;13.48;100.00;98999.22;4493482;31;20115;-68
2022/10/24 09:30:57;;;;;;;59.72;21.17;;;;;;;13.55;100.00;98999.44;4492788;31;20100;-68
2022/10/24 09:33:29;;;;;;;58.33;22.70;;;;;;;13.34;100.00;98997.09;4492390;31;20503;-68
2022/10/24 09:35:59;;;;;;;57.58;21.30;;;;;;;13.25;100.00;99000.59;4483151;31;20122;-68
2022/10/24 09:38:33;;;;;;;60.95;22.02;;;;;;;13.35;100.00;99011.09;4481361;31;20169;-68
2022/10/24 09:41:06;;;;;;;55.15;22.58;;;;;;;13.32;100.00;99010.37;4486859;31;20453;-68
2022/10/24 09:43:42;;;;;;;56.55;22.35;;;;;;;13.13;100.00;99016.56;4481938;32;20118;-67
2022/10/24 09:46:21;;;;;;;57.25;22.62;;;;;;;13.24;100.00;99027.88;4487674;31;20461;-68
2022/10/24 09:48:49;;;;;;;65.45;22.87;;;;;;;13.18;100.00;99024.03;4482813;31;20088;-67
2022/10/24 09:51:24;;;;;;;59.55;22.77;;;;;;;13.12;100.00;99014.09;4493261;31;20529;-68
2022/10/24 09:54:10;;;;;;;54.30;21.40;;;;;;;13.22;100.00;99008.78;4488732;31;20436;-70
2022/10/24 09:56:40;;;;;;;56.80;22.90;;;;;;;13.26;100.00;99010.97;4487784;31;20093;-69
2022/10/24 09:59:19;;;;;;;51.28;19.10;;;;;;;13.21;100.00;99013.22;4496164;31;20456;-70
2022/10/24 10:01:46;;;;;;;57.75;20.75;;;;;;;13.38;100.00;99000.25;4495405;31;20080;-70
2022/10/24 10:04:16;;;;;;;51.13;21.00;;;;;;;13.43;100.00;99012.00;4493815;31;20130;-68
2022/10/24 10:06:48;;;;;;;53.72;20.27;;;;;;;13.53;100.00;99006.66;4491634;31;20168;-67
2022/10/24 10:09:23;;;;;;;52.17;21.05;;;;;;;13.44;100.00;99011.03;4484831;31;20523;-68
2022/10/24 10:11:57;;;;;;;47.13;20.42;;;;;;;13.39;100.00;99009.81;4490289;31;20099;-67
2022/10/24 10:14:29;;;;;;;56.22;20.70;;;;;;;13.52;100.00;99009.44;4490969;31;20108;-68
2022/10/24 10:17:02;;;;;;;51.42;20.08;;;;;;;13.59;100.00;99011.31;4494527;31;20201;-68
2022/10/24 10:19:37;;;;;;;52.00;19.25;;;;;;;13.60;100.00;99007.72;4488978;31;20226;-68
2022/10/24 10:22:21;;;;;;;44.60;18.98;;;;;;;13.71;100.00;98995.31;4492181;31;20163;-68
2022/10/24 10:24:50;;;;;;;46.22;18.85;;;;;;;13.79;100.00;98996.19;4497822;31;20155;-67
2022/10/24 10:27:38;;;;;;;42.78;18.73;;;;;;;13.92;100.00;98993.16;4489543;31;20108;-66
2022/10/24 10:30:14;;;;;;;37.90;17.85;;;;;;;13.97;100.00;99003.25;4488425;31;20168;-67
2022/10/24 10:33:00;;;;;;;43.65;17.65;;;;;;;13.83;100.00;99000.16;4495864;31;20088;-68
2022/10/24 10:35:37;;;;;;;37.80;17.83;;;;;;;13.96;100.00;98998.94;4496554;31;20146;-68
2022/10/24 10:38:32;;;;;;;35.97;16.33;;;;;;;13.96;100.00;98997.16;4489051;31;20415;-70
2022/10/24 10:41:02;;;;;;;44.72;18.40;;;;;;;14.07;100.00;98982.91;4487493;31;20139;-71
2022/10/24 10:43:42;;;;;;;38.92;17.65;;;;;;;14.33;100.00;98984.72;4491654;31;20152;-70
2022/10/24 10:46:28;;;;;;;42.42;18.55;;;;;;;14.36;100.00;98979.13;4492497;31;20126;-69
2022/10/24 10:49:04;;;;;;;41.13;17.58;;;;;;;14.49;100.00;98984.81;4489633;31;20147;-67
2022/10/24 10:51:43;;;;;;;32.90;16.48;;;;;;;14.60;100.00;98967.06;4489386;31;20465;-67
2022/10/24 10:54:33;;;;;;;34.28;16.10;;;;;;;14.48;100.00;98974.41;4493962;31;20131;-68
2022/10/24 10:57:14;;;;;;;36.90;17.87;;;;;;;14.60;100.00;98973.16;4488670;31;20134;-67
2022/10/24 11:00:08;;;;;;;36.03;16.77;;;;;;;14.68;100.00;98969.75;4484161;31;20111;-68
2022/10/24 11:03:10;;;;;;;31.08;15.25;;;;;;;14.76;100.00;98961.03;4487031;31;20096;-68
2022/10/24 11:06:03;;;;;;;33.95;16.02;;;;;;;14.96;100.00;98972.16;4491097;31;20542;-68
2022/10/24 11:09:01;;;;;;;34.85;16.83;;;;;;;15.14;100.00;98967.59;4491851;31;20183;-66
2022/10/24 11:11:32;;;;;;;41.75;16.60;;;;;;;15.38;100.00;98961.53;4493085;31;20125;-67
2022/10/24 11:14:36;;;;;;;34.90;16.50;;;;;;;15.57;100.00;98964.84;4493849;31;20153;-67
2022/10/24 11:17:49;;;;;;;35.97;17.60;;;;;;;15.56;100.00;98968.47;4454269;32;20093;-68
2022/10/24 11:20:26;;;;;;;39.03;18.27;;;;;;;15.20;100.00;98963.47;4447820;32;20475;-67
2022/10/24 11:22:59;;;;;;;36.38;17.37;;;;;;;15.22;100.00;98978.16;4441005;32;20104;-68
2022/10/24 11:25:36;;;;;;;38.92;17.55;;;;;;;15.04;100.00;98975.66;4453797;32;20151;-68
2022/10/24 11:28:17;;;;;;;36.20;16.98;;;;;;;14.99;100.00;98977.94;4445608;32;20092;-67